createdAt,value
2018-04-15T00:00:40.968Z,95708.88
2018-04-15T00:03:06.953Z,95705.34
2018-04-15T00:05:32.973Z,95700.95
2018-04-15T00:07:59.013Z,95699.41
2018-04-15T00:10:25.033Z,95693.47
2018-04-15T00:12:51.076Z,95689.49
2018-04-15T00:15:17.080Z,95690.70
2018-04-15T00:17:43.095Z,95686.73
2018-04-15T00:20:09.103Z,95688.30
2018-04-15T00:22:35.147Z,95695.02
2018-04-15T00:25:01.155Z,95694.64
2018-04-15T00:27:27.226Z,95696.40
2018-04-15T00:29:53.206Z,95695.62
2018-04-15T00:32:19.226Z,95702.94
2018-04-15T00:34:45.242Z,95695.21
2018-04-15T00:37:11.245Z,95691.06
2018-04-15T00:39:37.257Z,95685.67
2018-04-15T00:42:03.293Z,95682.38
2018-04-15T00:44:29.310Z,95687.05
2018-04-15T00:46:55.311Z,95679.74
2018-04-15T00:49:21.319Z,95686.27
2018-04-15T00:51:47.370Z,95677.98
2018-04-15T00:54:13.382Z,95678.56
2018-04-15T00:56:39.387Z,95677.98
2018-04-15T00:59:05.434Z,95678.77
2018-04-15T01:01:31.435Z,95686.65
2018-04-15T01:03:57.433Z,95683.67
2018-04-15T01:06:23.495Z,95684.66
2018-04-15T01:08:49.519Z,95682.70
2018-04-15T01:11:15.525Z,95690.02
2018-04-15T01:13:41.497Z,95688.39
2018-04-15T01:16:07.505Z,95698.66
2018-04-15T01:18:33.557Z,95708.14
2018-04-15T01:20:59.565Z,95702.20
2018-04-15T01:23:25.569Z,95699.04
2018-04-15T01:25:51.573Z,95701.99
2018-04-15T01:28:17.612Z,95695.49
2018-04-15T01:30:43.583Z,95695.49
2018-04-15T01:33:09.599Z,95692.73
2018-04-15T01:35:35.598Z,95690.94
2018-04-15T01:38:01.607Z,95694.28
2018-04-15T01:40:27.622Z,95694.68
2018-04-15T01:42:53.659Z,95693.88
2018-04-15T01:45:19.674Z,95697.84
2018-04-15T01:47:45.683Z,95698.02
2018-04-15T01:50:11.701Z,95694.84
2018-04-15T01:52:37.712Z,95694.84
2018-04-15T01:55:03.718Z,95694.47
2018-04-15T01:57:29.724Z,95694.84
2018-04-15T01:59:55.734Z,95693.66
2018-04-15T02:02:21.777Z,95693.09
2018-04-15T02:04:47.758Z,95681.63
2018-04-15T02:07:13.766Z,95679.84
2018-04-15T02:09:39.777Z,95680.01
2018-04-15T02:12:05.787Z,95679.27
2018-04-15T02:14:31.822Z,95686.75
2018-04-15T02:16:57.793Z,95676.84
2018-04-15T02:19:23.825Z,95683.75
2018-04-15T02:21:49.876Z,95679.03
2018-04-15T02:24:15.891Z,95677.25
2018-04-15T02:26:41.942Z,95679.20
2018-04-15T02:29:07.975Z,95677.44
2018-04-15T02:31:33.954Z,95671.52
2018-04-15T02:33:59.964Z,95670.53
2018-04-15T02:36:25.999Z,95666.39
2018-04-15T02:38:51.973Z,95669.72
2018-04-15T02:41:18.024Z,95668.51
2018-04-15T02:43:44.031Z,95673.06
2018-04-15T02:46:10.041Z,95668.34
2018-04-15T02:48:36.050Z,95667.53
2018-04-15T02:51:02.065Z,95668.34
2018-04-15T02:53:28.087Z,95667.53
2018-04-15T02:55:54.134Z,95665.75
2018-04-15T02:58:20.136Z,95670.30
2018-04-15T03:00:46.140Z,95675.25
2018-04-15T03:03:12.155Z,95675.41
2018-04-15T03:05:38.199Z,95673.25
2018-04-15T03:08:04.241Z,95683.89
2018-04-15T03:10:30.214Z,95681.13
2018-04-15T03:12:56.262Z,95677.97
2018-04-15T03:15:22.270Z,95681.54
2018-04-15T03:17:48.326Z,95681.13
2018-04-15T03:20:14.335Z,95687.63
2018-04-15T03:22:40.307Z,95682.67
2018-04-15T03:25:06.293Z,95690.40
2018-04-15T03:27:32.307Z,95691.94
2018-04-15T03:29:58.289Z,95697.30
2018-04-15T03:32:24.234Z,95692.92
2018-04-15T03:34:50.213Z,95698.44
2018-04-15T03:37:16.203Z,95692.92
2018-04-15T03:39:42.184Z,95695.68
2018-04-15T03:42:08.162Z,95701.05
2018-04-15T03:44:34.136Z,95702.21
2018-04-15T03:47:00.192Z,95705.14
2018-04-15T03:49:26.142Z,95708.92
2018-04-15T03:51:52.155Z,95711.47
2018-04-15T03:54:18.166Z,95715.21
2018-04-15T03:56:44.110Z,95715.21
2018-04-15T03:59:10.141Z,95725.86
2018-04-15T04:01:36.120Z,95719.52
2018-04-15T04:04:02.138Z,95709.44
2018-04-15T04:06:28.122Z,95719.52
2018-04-15T04:08:54.072Z,95723.25
2018-04-15T04:11:20.063Z,95726.02
2018-04-15T04:13:46.123Z,95730.36
2018-04-15T04:16:12.071Z,95737.06
2018-04-15T04:18:38.056Z,95748.52
2018-04-15T04:21:04.049Z,95753.27
2018-04-15T04:23:30.033Z,95764.31
2018-04-15T04:25:56.024Z,95761.15
2018-04-15T04:28:22.009Z,95757.58
2018-04-15T04:30:48.046Z,95754.24
2018-04-15T04:33:14.055Z,95748.31
2018-04-15T04:35:40.014Z,95736.69
2018-04-15T04:38:06.006Z,95734.30
2018-04-15T04:40:32.024Z,95738.69
2018-04-15T04:42:58.046Z,95732.59
2018-04-15T04:45:24.026Z,95737.52
2018-04-15T04:47:50.008Z,95731.59
2018-04-15T04:50:16.024Z,95742.07
2018-04-15T04:52:41.980Z,95745.65
2018-04-15T04:55:07.959Z,95751.38
2018-04-15T04:57:33.952Z,95743.86
2018-04-15T04:59:59.941Z,95743.86
2018-04-15T05:02:25.959Z,95748.41
2018-04-15T05:04:51.913Z,95747.84
2018-04-15T05:07:17.926Z,95748.63
2018-04-15T05:09:43.910Z,95755.13
2018-04-15T05:12:09.891Z,95750.41
2018-04-15T05:14:35.902Z,95753.79
2018-04-15T05:17:01.882Z,95750.25
2018-04-15T05:19:27.861Z,95756.55
2018-04-15T05:21:53.836Z,95759.72
2018-04-15T05:24:19.835Z,95755.01
2018-04-15T05:26:45.864Z,95753.87
2018-04-15T05:29:11.845Z,95760.77
2018-04-15T05:31:37.792Z,95760.02
2018-04-15T05:34:03.801Z,95766.67
2018-04-15T05:36:29.817Z,95761.55
2018-04-15T05:38:58.778Z,95756.03
2018-04-15T05:41:24.783Z,95766.52
2018-04-15T05:43:50.770Z,95763.75
2018-04-15T05:46:16.751Z,95768.11
2018-04-15T05:48:42.794Z,95767.54
2018-04-15T05:51:08.840Z,95775.25
2018-04-15T05:53:34.790Z,95771.69
2018-04-15T05:56:00.769Z,95771.28
2018-04-15T05:58:26.971Z,95772.66
2018-04-15T06:00:52.984Z,95781.35
2018-04-15T06:03:18.998Z,95778.19
2018-04-15T06:05:44.946Z,95777.83
2018-04-15T06:08:10.980Z,95780.22
2018-04-15T06:10:36.970Z,95783.14
2018-04-15T06:13:03.016Z,95786.66
2018-04-15T06:15:28.993Z,95778.95
2018-04-15T06:17:55.004Z,95790.77
2018-04-15T06:20:21.261Z,95787.64
2018-04-15T06:22:53.402Z,95791.42
2018-04-15T06:25:19.415Z,95788.26
2018-04-15T06:27:45.372Z,95792.32
2018-04-15T06:30:11.411Z,95788.80
2018-04-15T06:32:37.395Z,95788.63
2018-04-15T06:35:03.418Z,95791.45
2018-04-15T06:37:29.421Z,95796.42
2018-04-15T06:39:55.433Z,95796.66
2018-04-15T06:42:21.486Z,95797.34
2018-04-15T06:44:47.476Z,95799.64
2018-04-15T06:47:13.497Z,95796.92
2018-04-15T06:49:39.485Z,95795.95
2018-04-15T06:52:05.575Z,95793.19
2018-04-15T06:54:31.597Z,95803.48
2018-04-15T06:56:57.548Z,95803.27
2018-04-15T06:59:23.528Z,95806.38
2018-04-15T07:01:49.535Z,95807.98
2018-04-15T07:04:15.521Z,95814.53
2018-04-15T07:06:41.500Z,95810.63
2018-04-15T07:09:07.519Z,95812.41
2018-04-15T07:11:33.471Z,95814.58
2018-04-15T07:13:59.503Z,95815.23
2018-04-15T07:16:25.496Z,95818.77
2018-04-15T07:18:51.466Z,95818.20
2018-04-15T07:21:17.513Z,95818.20
2018-04-15T07:23:43.462Z,95816.46
2018-04-15T07:26:09.483Z,95807.96
2018-04-15T07:28:35.513Z,95804.03
2018-04-15T07:31:01.523Z,95801.67
2018-04-15T07:33:27.498Z,95806.84
2018-04-15T07:35:53.488Z,95804.67
2018-04-15T07:38:19.469Z,95802.94
2018-04-15T07:40:45.505Z,95802.94
2018-04-15T07:43:11.494Z,95808.67
2018-04-15T07:45:37.526Z,95804.94
2018-04-15T07:48:03.510Z,95797.62
2018-04-15T07:50:29.527Z,95801.20
2018-04-15T07:52:55.490Z,95799.05
2018-04-15T07:55:21.473Z,95798.48
2018-04-15T07:57:47.502Z,95796.13
2018-04-15T08:00:13.456Z,95794.69
2018-04-15T08:02:39.436Z,95792.14
2018-04-15T08:05:05.450Z,95789.38
2018-04-15T08:07:31.409Z,95783.84
2018-04-15T08:09:57.395Z,95784.05
2018-04-15T08:12:23.485Z,95782.06
2018-04-15T08:14:49.497Z,95774.17
2018-04-15T08:17:15.508Z,95766.70
2018-04-15T08:19:41.438Z,95770.03
2018-04-15T08:22:07.421Z,95770.64
2018-04-15T08:24:33.429Z,95768.13
2018-04-15T08:26:59.396Z,95770.89
2018-04-15T08:29:25.418Z,95765.16
2018-04-15T08:31:51.378Z,95764.02
2018-04-15T08:34:17.406Z,95759.36
2018-04-15T08:36:43.389Z,95763.09
2018-04-15T08:39:09.373Z,95751.99
2018-04-15T08:41:35.399Z,95756.95
2018-04-15T08:44:01.341Z,95752.97
2018-04-15T08:46:27.326Z,95755.16
2018-04-15T08:48:53.308Z,95748.98
2018-04-15T08:51:19.296Z,95750.04
2018-04-15T08:53:45.316Z,95747.66
2018-04-15T08:56:11.297Z,95744.31
2018-04-15T08:58:37.289Z,95742.77
2018-04-15T09:01:03.267Z,95736.48
2018-04-15T09:03:29.246Z,95740.58
2018-04-15T09:05:55.259Z,95732.64
2018-04-15T09:08:21.210Z,95726.92
2018-04-15T09:10:47.339Z,95734.23
2018-04-15T09:13:13.521Z,95724.56
2018-04-15T09:15:39.531Z,95719.44
2018-04-15T09:18:05.543Z,95712.36
2018-04-15T09:20:31.528Z,95719.48
2018-04-15T09:22:57.484Z,95716.27
2018-04-15T09:25:23.490Z,95713.45
2018-04-15T09:27:49.502Z,95711.27
2018-04-15T09:30:15.611Z,95705.36
2018-04-15T09:32:41.593Z,95694.68
2018-04-15T09:35:07.601Z,95688.78
2018-04-15T09:37:33.674Z,95686.22
2018-04-15T09:39:59.631Z,95687.39
2018-04-15T09:42:25.712Z,95694.30
2018-04-15T09:44:51.695Z,95695.45
2018-04-15T09:47:17.646Z,95690.53
2018-04-15T09:49:43.641Z,95679.10
2018-04-15T09:52:09.659Z,95685.25
2018-04-15T09:54:35.627Z,95684.84
2018-04-15T09:57:01.629Z,95678.95
2018-04-15T09:59:27.644Z,95680.94
2018-04-15T10:01:53.659Z,95688.05
2018-04-15T10:04:19.769Z,95687.89
2018-04-15T10:06:45.756Z,95679.00
2018-04-15T10:09:11.891Z,95682.98
2018-04-15T10:11:37.896Z,95676.27
2018-04-15T10:14:03.837Z,95674.33
2018-04-15T10:16:29.887Z,95682.00
2018-04-15T10:18:56.606Z,95681.59
2018-04-15T10:21:23.481Z,95679.23
2018-04-15T10:23:51.005Z,95676.23
2018-04-15T10:26:17.002Z,95674.07
2018-04-15T10:28:42.980Z,95670.49
2018-04-15T10:31:08.988Z,95674.80
2018-04-15T10:33:34.968Z,95670.86
2018-04-15T10:36:00.952Z,95673.02
2018-04-15T10:38:26.969Z,95670.45
2018-04-15T10:40:52.952Z,95672.56
2018-04-15T10:43:19.011Z,95670.41
2018-04-15T10:45:44.975Z,95667.04
2018-04-15T10:48:10.988Z,95670.41
2018-04-15T10:50:36.936Z,95663.75
2018-04-15T10:53:02.969Z,95661.23
2018-04-15T10:55:28.917Z,95654.72
2018-04-15T10:57:54.899Z,95653.55
2018-04-15T11:00:20.886Z,95657.53
2018-04-15T11:02:46.869Z,95662.45
2018-04-15T11:05:12.884Z,95661.48
2018-04-15T11:07:38.885Z,95665.63
2018-04-15T11:10:04.904Z,95659.64
2018-04-15T11:12:30.879Z,95663.98
2018-04-15T11:14:56.891Z,95668.70
2018-04-15T11:17:22.964Z,95674.80
2018-04-15T11:19:48.935Z,95677.61
2018-04-15T11:22:14.948Z,95678.78
2018-04-15T11:24:40.943Z,95681.55
2018-04-15T11:27:06.966Z,95677.57
2018-04-15T11:29:32.922Z,95678.78
2018-04-15T11:31:58.908Z,95681.95
2018-04-15T11:34:24.897Z,95686.06
2018-04-15T11:36:50.879Z,95678.74
2018-04-15T11:39:16.899Z,95684.67
2018-04-15T11:41:42.847Z,95684.48
2018-04-15T11:44:09.069Z,95681.55
2018-04-15T11:46:35.169Z,95689.61
2018-04-15T11:49:01.153Z,95676.19
2018-04-15T11:51:27.672Z,95684.48
2018-04-15T11:53:53.591Z,95682.93
2018-04-15T11:56:19.558Z,95685.74
2018-04-15T11:58:45.589Z,95683.79
2018-04-15T12:01:11.648Z,95680.02
2018-04-15T12:03:37.646Z,95673.88
2018-04-15T12:06:03.660Z,95677.86
2018-04-15T12:08:30.128Z,95670.13
2018-04-15T12:10:56.241Z,95673.30
2018-04-15T12:13:24.253Z,95670.54
2018-04-15T12:16:04.568Z,95676.47
2018-04-15T12:18:30.513Z,95674.07
2018-04-15T12:20:56.543Z,95674.45
2018-04-15T12:23:24.462Z,95669.52
2018-04-15T12:25:52.325Z,95675.66
2018-04-15T12:28:18.431Z,95668.75
2018-04-15T12:30:44.406Z,95665.38
2018-04-15T12:33:11.060Z,95664.56
2018-04-15T12:35:37.128Z,95666.11
2018-04-15T12:38:06.427Z,95671.87
2018-04-15T12:40:34.392Z,95674.80
2018-04-15T12:43:00.372Z,95677.16
2018-04-15T12:45:26.367Z,95669.47
2018-04-15T12:47:52.665Z,95669.28
2018-04-15T12:50:18.705Z,95668.88
2018-04-15T12:52:45.544Z,95661.75
2018-04-15T12:55:11.914Z,95659.20
2018-04-15T12:57:37.906Z,95658.02
2018-04-15T13:00:23.535Z,95646.19
2018-04-15T13:02:49.828Z,95640.05
2018-04-15T13:05:15.838Z,95633.54
2018-04-15T13:07:41.813Z,95632.16
2018-04-15T13:10:07.891Z,95632.16
2018-04-15T13:12:33.878Z,95631.75
2018-04-15T13:15:01.209Z,95642.05
2018-04-15T13:17:48.514Z,95653.09
2018-04-15T13:20:16.352Z,95662.61
2018-04-15T13:22:42.369Z,95660.62
2018-04-15T13:25:08.503Z,95665.78
2018-04-15T13:27:34.491Z,95667.94
2018-04-15T13:30:01.019Z,95675.83
2018-04-15T13:32:27.190Z,95676.23
2018-04-15T13:34:53.168Z,95667.53
2018-04-15T13:37:19.776Z,95661.23
2018-04-15T13:39:45.775Z,95660.81
2018-04-15T13:42:11.741Z,95658.63
2018-04-15T13:44:37.720Z,95655.86
2018-04-15T13:47:03.751Z,95653.09
2018-04-15T13:49:29.851Z,95648.55
2018-04-15T13:51:55.832Z,95647.16
2018-04-15T13:54:22.028Z,95643.99
2018-04-15T13:56:48.089Z,95640.66
2018-04-15T13:59:14.073Z,95638.47
2018-04-15T14:01:40.450Z,95643.99
2018-04-15T14:04:07.117Z,95641.64
2018-04-15T14:06:33.474Z,95646.55
2018-04-15T14:08:59.470Z,95653.62
2018-04-15T14:11:25.452Z,95658.38
2018-04-15T14:13:51.991Z,95648.09
2018-04-15T14:16:17.962Z,95649.72
2018-04-15T14:18:43.995Z,95649.31
2018-04-15T14:21:09.951Z,95655.45
2018-04-15T14:23:35.970Z,95650.33
2018-04-15T14:26:01.976Z,95647.81
2018-04-15T14:28:27.957Z,95643.26
2018-04-15T14:30:53.997Z,95639.28
2018-04-15T14:33:20.021Z,95632.73
2018-04-15T14:35:46.024Z,95634.88
2018-04-15T14:38:12.049Z,95627.16
2018-04-15T14:40:38.030Z,95623.58
2018-04-15T14:43:04.780Z,95622.20
2018-04-15T14:45:30.797Z,95624.97
2018-04-15T14:47:56.811Z,95626.34
2018-04-15T14:50:24.359Z,95625.54
2018-04-15T14:52:50.348Z,95618.25
2018-04-15T14:55:18.080Z,95617.25
2018-04-15T14:57:44.175Z,95626.34
2018-04-15T15:00:10.216Z,95619.84
2018-04-15T15:02:36.194Z,95625.20
2018-04-15T15:05:02.217Z,95624.39
2018-04-15T15:07:28.243Z,95623.42
2018-04-15T15:09:54.228Z,95615.70
2018-04-15T15:12:29.610Z,95612.77
2018-04-15T15:14:55.613Z,95611.55
2018-04-15T15:17:22.865Z,95600.86
2018-04-15T15:19:48.855Z,95599.48
2018-04-15T15:22:15.015Z,95600.45
2018-04-15T15:24:41.891Z,95605.17
2018-04-15T15:27:17.557Z,95604.03
2018-04-15T15:29:46.248Z,95597.28
2018-04-15T15:32:13.323Z,95588.99
2018-04-15T15:34:39.900Z,95585.62
2018-04-15T15:37:13.089Z,95587.98
2018-04-15T15:39:42.595Z,95576.75
2018-04-15T15:42:09.949Z,95567.45
2018-04-15T15:44:35.846Z,95556.19
2018-04-15T15:47:01.906Z,95547.69
2018-04-15T15:49:27.879Z,95536.00
2018-04-15T15:51:53.867Z,95535.25
2018-04-15T15:54:19.864Z,95532.66
2018-04-15T15:56:45.849Z,95541.52
2018-04-15T15:59:11.895Z,95541.52
2018-04-15T16:01:37.885Z,95529.09
2018-04-15T16:04:15.259Z,95528.68
2018-04-15T16:06:41.271Z,95528.88
2018-04-15T16:09:07.256Z,95524.16
2018-04-15T16:11:33.243Z,95517.63
2018-04-15T16:14:00.479Z,95518.44
2018-04-15T16:16:26.547Z,95515.67
2018-04-15T16:18:52.478Z,95519.01
2018-04-15T16:21:18.531Z,95507.91
2018-04-15T16:23:44.673Z,95509.30
2018-04-15T16:26:10.660Z,95513.64
2018-04-15T16:28:36.640Z,95514.78
2018-04-15T16:31:02.692Z,95516.36
2018-04-15T16:33:28.750Z,95517.74
2018-04-15T16:35:54.924Z,95512.02
2018-04-15T16:38:20.883Z,95507.91
2018-04-15T16:40:47.052Z,95503.81
2018-04-15T16:43:13.276Z,95505.19
2018-04-15T16:45:40.809Z,95504.22
2018-04-15T16:48:08.114Z,95509.34
2018-04-15T16:50:34.837Z,95509.53
2018-04-15T16:53:00.844Z,95516.61
2018-04-15T16:55:26.845Z,95508.31
2018-04-15T16:57:52.820Z,95507.34
2018-04-15T17:00:19.384Z,95502.79
2018-04-15T17:02:45.367Z,95499.25
2018-04-15T17:05:11.399Z,95503.56
2018-04-15T17:07:37.363Z,95500.39
2018-04-15T17:10:03.346Z,95507.88
2018-04-15T17:12:29.378Z,95507.66
2018-04-15T17:14:55.333Z,95508.23
2018-04-15T17:17:21.321Z,95510.95
2018-04-15T17:19:47.341Z,95512.58
2018-04-15T17:22:14.411Z,95511.00
2018-04-15T17:24:40.387Z,95512.02
2018-04-15T17:27:08.757Z,95517.91
2018-04-15T17:29:34.734Z,95520.47
2018-04-15T17:32:00.750Z,95538.23
2018-04-15T17:34:26.745Z,95544.16
2018-04-15T17:36:52.762Z,95546.35
2018-04-15T17:39:18.747Z,95551.31
2018-04-15T17:41:44.914Z,95552.05
2018-04-15T17:44:10.893Z,95553.05
2018-04-15T17:46:36.907Z,95559.77
2018-04-15T17:49:02.942Z,95561.34
2018-04-15T17:51:31.433Z,95562.32
2018-04-15T17:53:57.449Z,95564.27
2018-04-15T17:56:23.420Z,95564.27
2018-04-15T17:58:49.466Z,95566.83
2018-04-15T18:01:15.453Z,95565.45
2018-04-15T18:03:41.730Z,95566.06
2018-04-15T18:06:07.728Z,95568.25
2018-04-15T18:08:33.772Z,95572.40
2018-04-15T18:10:59.750Z,95572.56
2018-04-15T18:13:25.772Z,95576.30
2018-04-15T18:15:51.786Z,95581.63
2018-04-15T18:18:17.763Z,95586.74
2018-04-15T18:20:43.729Z,95583.34
2018-04-15T18:23:09.743Z,95583.94
2018-04-15T18:25:35.745Z,95586.87
2018-04-15T18:28:01.798Z,95586.05
2018-04-15T18:30:27.808Z,95587.06
2018-04-15T18:32:53.826Z,95572.23
2018-04-15T18:35:19.796Z,95571.46
2018-04-15T18:37:45.793Z,95572.44
2018-04-15T18:40:11.787Z,95572.20
2018-04-15T18:42:37.778Z,95568.20
2018-04-15T18:45:03.762Z,95554.44
2018-04-15T18:47:29.821Z,95559.59
2018-04-15T18:49:55.779Z,95565.33
2018-04-15T18:52:21.764Z,95559.80
2018-04-15T18:54:47.747Z,95564.80
2018-04-15T18:57:13.760Z,95563.99
2018-04-15T18:59:39.811Z,95566.76
2018-04-15T19:02:05.800Z,95559.84
2018-04-15T19:04:31.852Z,95553.95
2018-04-15T19:06:57.810Z,95550.42
2018-04-15T19:09:23.839Z,95551.39
2018-04-15T19:11:49.829Z,95551.23
2018-04-15T19:14:15.810Z,95554.39
2018-04-15T19:16:41.836Z,95564.64
2018-04-15T19:19:07.808Z,95565.20
2018-04-15T19:21:34.027Z,95571.91
2018-04-15T19:23:59.974Z,95566.76
2018-04-15T19:26:25.997Z,95568.33
2018-04-15T19:28:51.972Z,95573.66
2018-04-15T19:31:18.053Z,95565.00
2018-04-15T19:33:44.813Z,95562.85
2018-04-15T19:36:11.255Z,95565.78
2018-04-15T19:38:37.689Z,95569.59
2018-04-15T19:41:04.426Z,95578.86
2018-04-15T19:43:30.966Z,95576.92
2018-04-15T19:45:57.401Z,95579.52
2018-04-15T19:48:23.802Z,95586.63
2018-04-15T19:50:50.543Z,95590.04
2018-04-15T19:53:17.453Z,95586.47
2018-04-15T19:55:44.264Z,95585.29
2018-04-15T19:58:15.205Z,95582.53
2018-04-15T20:00:41.503Z,95585.70
2018-04-15T20:03:08.151Z,95581.95
2018-04-15T20:05:34.814Z,95577.64
2018-04-15T20:08:01.318Z,95579.81
2018-04-15T20:10:27.959Z,95587.53
2018-04-15T20:12:54.493Z,95585.98
2018-04-15T20:15:22.093Z,95589.15
2018-04-15T20:17:48.418Z,95584.19
2018-04-15T20:20:15.403Z,95580.62
2018-04-15T20:22:41.969Z,95576.30
2018-04-15T20:25:08.612Z,95578.47
2018-04-15T20:27:35.084Z,95577.48
2018-04-15T20:30:01.748Z,95584.80
2018-04-15T20:32:29.176Z,95590.17
2018-04-15T20:34:55.181Z,95601.63
2018-04-15T20:37:21.193Z,95601.22
2018-04-15T20:39:47.187Z,95599.80
2018-04-15T20:42:13.177Z,95590.08
2018-04-15T20:44:39.187Z,95588.30
2018-04-15T20:47:05.234Z,95585.53
2018-04-15T20:49:31.235Z,95580.37
2018-04-15T20:51:57.297Z,95585.29
2018-04-15T20:54:23.282Z,95592.40
2018-04-15T20:56:49.284Z,95601.45
2018-04-15T20:59:15.259Z,95606.38
2018-04-15T21:01:41.241Z,95612.11
2018-04-15T21:04:07.228Z,95620.56
2018-04-15T21:06:33.257Z,95629.22
2018-04-15T21:08:59.235Z,95619.70
2018-04-15T21:11:25.189Z,95624.62
2018-04-15T21:13:51.173Z,95623.81
2018-04-15T21:16:17.160Z,95621.00
2018-04-15T21:18:43.182Z,95621.41
2018-04-15T21:21:09.133Z,95621.98
2018-04-15T21:23:35.114Z,95631.27
2018-04-15T21:26:01.110Z,95636.56
2018-04-15T21:28:27.081Z,95636.16
2018-04-15T21:30:53.092Z,95624.89
2018-04-15T21:33:19.085Z,95621.89
2018-04-15T21:35:45.021Z,95612.98
2018-04-15T21:38:10.999Z,95617.53
2018-04-15T21:40:36.986Z,95625.02
2018-04-15T21:43:02.998Z,95630.33
2018-04-15T21:45:28.984Z,95635.86
2018-04-15T21:47:54.965Z,95632.69
2018-04-15T21:50:20.955Z,95635.61
2018-04-15T21:52:46.939Z,95637.19
2018-04-15T21:55:12.961Z,95640.36
2018-04-15T21:57:38.900Z,95636.78
2018-04-15T22:00:04.944Z,95626.27
2018-04-15T22:02:30.952Z,95614.03
2018-04-15T22:04:56.900Z,95614.20
2018-04-15T22:07:22.911Z,95605.51
2018-04-15T22:09:48.884Z,95604.73
2018-04-15T22:12:14.921Z,95618.34
2018-04-15T22:14:40.946Z,95611.39
2018-04-15T22:17:06.890Z,95616.34
2018-04-15T22:19:32.911Z,95612.20
2018-04-15T22:21:58.863Z,95601.32
2018-04-15T22:24:24.849Z,95602.70
2018-04-15T22:26:50.871Z,95607.82
2018-04-15T22:29:16.819Z,95601.92
2018-04-15T22:31:42.798Z,95595.02
2018-04-15T22:34:08.825Z,95588.68
2018-04-15T22:36:34.843Z,95586.08
2018-04-15T22:39:00.823Z,95580.55
2018-04-15T22:41:26.775Z,95566.94
2018-04-15T22:43:52.747Z,95568.13
2018-04-15T22:46:18.745Z,95555.08
2018-04-15T22:48:44.719Z,95557.44
2018-04-15T22:51:10.780Z,95557.03
2018-04-15T22:53:36.726Z,95548.94
2018-04-15T22:56:02.740Z,95544.59
2018-04-15T22:58:28.695Z,95538.46
2018-04-15T23:00:54.676Z,95539.03
2018-04-15T23:03:20.665Z,95536.67
2018-04-15T23:05:46.647Z,95535.30
2018-04-15T23:08:12.634Z,95527.41
2018-04-15T23:10:38.612Z,95525.42
2018-04-15T23:13:04.632Z,95529.94
2018-04-15T23:15:30.583Z,95528.55
2018-04-15T23:17:56.565Z,95519.89
2018-04-15T23:20:22.578Z,95511.61
2018-04-15T23:22:48.555Z,95513.96
2018-04-15T23:25:14.542Z,95508.61
2018-04-15T23:27:40.517Z,95509.98
2018-04-15T23:30:06.538Z,95500.72
2018-04-15T23:32:32.514Z,95503.28
2018-04-15T23:34:58.497Z,95487.08
2018-04-15T23:37:24.486Z,95490.44
2018-04-15T23:39:50.490Z,95486.70
2018-04-15T23:42:16.482Z,95494.18
2018-04-15T23:44:42.465Z,95491.02
2018-04-15T23:47:08.481Z,95496.54
2018-04-15T23:49:34.488Z,95490.04
2018-04-15T23:52:00.430Z,95499.30
2018-04-15T23:54:26.419Z,95490.61
2018-04-15T23:56:52.434Z,95486.06
2018-04-15T23:59:18.380Z,95477.37
